createdAt,value
2019-02-08T00:02:25.039Z,101043.55
2019-02-08T00:04:55.898Z,101045.27
2019-02-08T00:07:26.446Z,101046.20
2019-02-08T00:09:57.216Z,101035.43
2019-02-08T00:12:27.895Z,101034.65
2019-02-08T00:15:00.403Z,101024.38
2019-02-08T00:17:31.320Z,101029.86
2019-02-08T00:20:02.259Z,101025.12
2019-02-08T00:22:32.855Z,101028.49
2019-02-08T00:25:11.011Z,101025.45
2019-02-08T00:27:43.309Z,101032.78
2019-02-08T00:30:24.935Z,101026.95
2019-02-08T00:32:55.856Z,101019.63
2019-02-08T00:35:27.299Z,101027.39
2019-02-08T00:37:57.903Z,101019.98
2019-02-08T00:40:28.915Z,101025.67
2019-02-08T00:43:00.737Z,101019.63
2019-02-08T00:45:31.178Z,101016.77
2019-02-08T00:48:01.585Z,101014.94
2019-02-08T00:50:33.511Z,101017.59
2019-02-08T00:53:04.665Z,101004.36
2019-02-08T00:55:36.285Z,101006.15
2019-02-08T00:58:07.398Z,101000.84
2019-02-08T01:00:38.591Z,100999.05
2019-02-08T01:03:09.320Z,101000.34
2019-02-08T01:05:41.629Z,100996.09
2019-02-08T01:08:13.015Z,100990.86
2019-02-08T01:10:46.115Z,101000.77
2019-02-08T01:13:16.843Z,100994.84
2019-02-08T01:15:48.187Z,101000.10
2019-02-08T01:18:18.624Z,100988.63
2019-02-08T01:20:49.374Z,100986.83
2019-02-08T01:23:19.619Z,100995.70
2019-02-08T01:25:49.771Z,100987.97
2019-02-08T01:28:20.637Z,100980.67
2019-02-08T01:30:52.012Z,100991.80
2019-02-08T01:33:22.600Z,100985.78
2019-02-08T01:35:53.142Z,100981.96
2019-02-08T01:38:23.614Z,100983.83
2019-02-08T01:40:55.836Z,100975.24
2019-02-08T01:43:26.293Z,100972.75
2019-02-08T01:45:56.749Z,100979.65
2019-02-08T01:48:27.680Z,100971.81
2019-02-08T01:50:58.079Z,100977.43
2019-02-08T01:53:28.706Z,100972.00
2019-02-08T01:55:59.296Z,100966.34
2019-02-08T01:58:30.093Z,100975.40
2019-02-08T02:01:00.716Z,100977.55
2019-02-08T02:03:31.348Z,100970.75
2019-02-08T02:06:02.344Z,100980.66
2019-02-08T02:08:33.110Z,100978.23
2019-02-08T02:11:03.614Z,100985.41
2019-02-08T02:13:34.043Z,100978.91
2019-02-08T02:16:04.945Z,100981.48
2019-02-08T02:18:35.304Z,100979.77
2019-02-08T02:21:05.709Z,100982.02
2019-02-08T02:23:36.759Z,100990.06
2019-02-08T02:26:07.194Z,100986.16
2019-02-08T02:28:37.802Z,100976.76
2019-02-08T02:31:09.424Z,100983.52
2019-02-08T02:33:39.869Z,100969.69
2019-02-08T02:36:10.488Z,100992.28
2019-02-08T02:38:41.534Z,100985.41
2019-02-08T02:41:12.061Z,100990.06
2019-02-08T02:43:42.580Z,100981.05
2019-02-08T02:46:13.401Z,100985.06
2019-02-08T02:48:44.096Z,100986.95
2019-02-08T02:51:15.102Z,100990.36
2019-02-08T02:53:45.940Z,100985.67
2019-02-08T02:56:16.644Z,100981.38
2019-02-08T02:58:48.168Z,100987.03
2019-02-08T03:01:18.909Z,100975.45
2019-02-08T03:03:49.724Z,100984.03
2019-02-08T03:06:20.142Z,100978.02
2019-02-08T03:08:50.677Z,100979.23
2019-02-08T03:11:21.161Z,100991.31
2019-02-08T03:13:52.035Z,100981.59
2019-02-08T03:16:22.825Z,100970.44
2019-02-08T03:18:53.282Z,100972.52
2019-02-08T03:21:23.640Z,100972.48
2019-02-08T03:23:54.208Z,100972.52
2019-02-08T03:26:24.624Z,100971.16
2019-02-08T03:28:55.305Z,100963.54
2019-02-08T03:31:27.116Z,100964.80
2019-02-08T03:33:58.671Z,100958.78
2019-02-08T03:36:29.277Z,100966.08
2019-02-08T03:39:00.020Z,100964.00
2019-02-08T03:41:31.283Z,100956.17
2019-02-08T03:44:02.215Z,100953.99
2019-02-08T03:46:32.850Z,100952.89
2019-02-08T03:49:04.748Z,100959.79
2019-02-08T03:51:35.464Z,100957.14
2019-02-08T03:54:06.251Z,100949.06
2019-02-08T03:56:37.103Z,100941.81
2019-02-08T03:59:07.665Z,100943.91
2019-02-08T04:01:38.325Z,100955.07
2019-02-08T04:04:17.850Z,100951.67
2019-02-08T04:06:48.527Z,100948.17
2019-02-08T04:09:19.093Z,100945.20
2019-02-08T04:11:49.690Z,100951.28
2019-02-08T04:14:20.200Z,100950.92
2019-02-08T04:16:51.138Z,100949.17
2019-02-08T04:19:22.031Z,100948.67
2019-02-08T04:21:52.902Z,100949.56
2019-02-08T04:24:29.732Z,100956.86
2019-02-08T04:26:55.853Z,100959.83
2019-02-08T04:29:26.409Z,100949.56
2019-02-08T04:31:58.006Z,100958.14
2019-02-08T04:34:28.704Z,100961.22
2019-02-08T04:37:00.036Z,100963.36
2019-02-08T04:39:30.731Z,100960.86
2019-02-08T04:42:01.601Z,100953.92
2019-02-08T04:44:33.092Z,100957.75
2019-02-08T04:47:04.144Z,100970.26
2019-02-08T04:49:35.315Z,100966.50
2019-02-08T04:52:05.752Z,100970.76
2019-02-08T04:54:38.352Z,100961.33
2019-02-08T04:57:10.674Z,100963.44
2019-02-08T04:59:41.334Z,100966.22
2019-02-08T05:02:13.115Z,100960.57
2019-02-08T05:04:44.038Z,100966.25
2019-02-08T05:07:15.138Z,100961.56
2019-02-08T05:09:45.618Z,100968.89
2019-02-08T05:12:16.470Z,100965.49
2019-02-08T05:14:47.207Z,100967.53
2019-02-08T05:17:17.812Z,100965.03
2019-02-08T05:19:48.766Z,100974.50
2019-02-08T05:22:19.315Z,100972.32
2019-02-08T05:24:49.885Z,100977.43
2019-02-08T05:27:20.225Z,100971.82
2019-02-08T05:29:52.541Z,100972.22
2019-02-08T05:32:24.387Z,100971.82
2019-02-08T05:34:54.998Z,100975.11
2019-02-08T05:37:25.396Z,100981.48
2019-02-08T05:39:57.393Z,100991.67
2019-02-08T05:42:29.257Z,100995.06
2019-02-08T05:44:59.729Z,100998.50
2019-02-08T05:47:30.307Z,100997.17
2019-02-08T05:50:01.011Z,101002.36
2019-02-08T05:52:31.731Z,101004.94
2019-02-08T05:55:03.477Z,101000.08
2019-02-08T05:57:36.260Z,101003.94
2019-02-08T06:00:13.191Z,101005.58
2019-02-08T06:02:44.126Z,101014.52
2019-02-08T06:05:15.325Z,101009.45
2019-02-08T06:07:46.233Z,101008.09
2019-02-08T06:10:17.270Z,101007.73
2019-02-08T06:12:48.074Z,101001.33
2019-02-08T06:15:20.088Z,101011.59
2019-02-08T06:17:50.883Z,101009.12
2019-02-08T06:20:21.850Z,101011.19
2019-02-08T06:22:53.303Z,101012.34
2019-02-08T06:25:24.910Z,101009.38
2019-02-08T06:27:55.690Z,101017.53
2019-02-08T06:30:28.091Z,101007.63
2019-02-08T06:32:59.687Z,101007.19
2019-02-08T06:35:31.049Z,101000.72
2019-02-08T06:38:01.511Z,101004.62
2019-02-08T06:40:32.467Z,100996.36
2019-02-08T06:43:03.175Z,101007.52
2019-02-08T06:45:33.916Z,101007.16
2019-02-08T06:48:04.888Z,101015.56
2019-02-08T06:50:35.451Z,101013.73
2019-02-08T06:53:06.141Z,101008.45
2019-02-08T06:55:39.080Z,101012.70
2019-02-08T06:58:34.365Z,101014.27
2019-02-08T07:01:16.382Z,101012.94
2019-02-08T07:03:53.757Z,101011.27
2019-02-08T07:06:44.573Z,101006.78
2019-02-08T07:09:52.344Z,101012.05
2019-02-08T07:12:34.662Z,101013.30
2019-02-08T07:15:37.242Z,101015.45
2019-02-08T07:18:25.589Z,101016.23
2019-02-08T07:21:08.330Z,101015.37
2019-02-08T07:24:07.822Z,101015.96
2019-02-08T07:27:00.155Z,101021.82
2019-02-08T07:32:35.095Z,101018.34
2019-02-08T07:35:24.829Z,101024.36
2019-02-08T07:38:20.936Z,101019.98
2019-02-08T07:41:13.461Z,101021.78
2019-02-08T07:44:15.175Z,101026.58
2019-02-08T07:47:10.989Z,101027.72
2019-02-08T07:50:08.105Z,101029.82
2019-02-08T07:53:04.544Z,101028.80
2019-02-08T07:55:52.991Z,101036.80
2019-02-08T07:58:54.604Z,101034.69
2019-02-08T08:01:43.098Z,101029.23
2019-02-08T08:04:32.465Z,101028.34
2019-02-08T08:07:20.825Z,101031.31
2019-02-08T08:10:19.622Z,101039.63
2019-02-08T08:13:12.474Z,101030.41
2019-02-08T08:16:05.025Z,101037.22
2019-02-08T08:18:48.971Z,101038.03
2019-02-08T08:21:33.524Z,101038.11
2019-02-08T08:24:26.729Z,101040.52
2019-02-08T08:27:16.816Z,101044.48
2019-02-08T08:29:57.356Z,101050.80
2019-02-08T08:33:06.481Z,101046.33
2019-02-08T08:36:10.191Z,101050.58
2019-02-08T08:39:16.045Z,101048.28
2019-02-08T08:42:14.527Z,101044.77
2019-02-08T08:45:28.790Z,101030.89
2019-02-08T08:48:27.121Z,101047.41
2019-02-08T08:51:32.318Z,101049.12
2019-02-08T08:54:55.538Z,101045.20
2019-02-08T08:57:56.549Z,101054.86
2019-02-08T09:01:01.747Z,101057.70
2019-02-08T09:04:11.714Z,101054.34
2019-02-08T09:07:34.588Z,101062.29
2019-02-08T09:10:38.917Z,101065.30
2019-02-08T09:14:11.712Z,101064.39
2019-02-08T09:17:16.742Z,101068.17
2019-02-08T09:20:37.046Z,101061.66
2019-02-08T09:23:46.679Z,101063.03
2019-02-08T09:26:45.314Z,101064.80
2019-02-08T09:30:05.510Z,101065.30
2019-02-08T09:33:13.229Z,101064.77
2019-02-08T09:36:22.931Z,101059.33
2019-02-08T09:39:47.123Z,101045.74
2019-02-08T09:42:53.786Z,101052.48
2019-02-08T09:45:57.505Z,101048.21
2019-02-08T09:49:08.771Z,101042.95
2019-02-08T09:52:06.247Z,101046.73
2019-02-08T09:55:22.042Z,101041.88
2019-02-08T09:58:45.023Z,101036.78
2019-02-08T10:01:51.782Z,101029.54
2019-02-08T10:04:57.862Z,101029.72
2019-02-08T10:08:06.037Z,101028.84
2019-02-08T10:11:21.846Z,101025.94
2019-02-08T10:14:41.007Z,101026.63
2019-02-08T10:17:46.528Z,101012.91
2019-02-08T10:20:57.764Z,101014.32
2019-02-08T10:23:56.154Z,101014.79
2019-02-08T10:27:12.218Z,101009.95
2019-02-08T10:30:25.262Z,101004.12
2019-02-08T10:33:51.079Z,101000.95
2019-02-08T10:36:49.769Z,101002.77
2019-02-08T10:40:05.570Z,101004.56
2019-02-08T10:43:24.536Z,101002.59
2019-02-08T10:46:27.024Z,100996.28
2019-02-08T10:49:47.637Z,100998.92
2019-02-08T10:53:11.208Z,100995.44
2019-02-08T10:56:25.126Z,100991.95
2019-02-08T10:59:38.508Z,100989.36
2019-02-08T11:02:49.245Z,100980.08
2019-02-08T11:06:07.593Z,100982.66
2019-02-08T11:09:15.117Z,100979.34
2019-02-08T11:12:20.440Z,100975.25
2019-02-08T11:15:38.712Z,100964.86
2019-02-08T11:18:40.656Z,100964.28
2019-02-08T11:21:11.339Z,100964.95
2019-02-08T11:23:42.007Z,100961.09
2019-02-08T11:26:13.303Z,100964.84
2019-02-08T11:28:43.909Z,100965.34
2019-02-08T11:31:14.550Z,100960.69
2019-02-08T11:33:45.289Z,100961.16
2019-02-08T11:36:17.803Z,100964.72
2019-02-08T11:38:49.268Z,100961.59
2019-02-08T11:41:19.642Z,100959.86
2019-02-08T11:43:50.184Z,100957.86
2019-02-08T11:46:20.931Z,100956.14
2019-02-08T11:48:51.301Z,100951.80
2019-02-08T11:51:21.774Z,100958.94
2019-02-08T11:53:52.434Z,100956.33
2019-02-08T11:56:29.894Z,100953.17
2019-02-08T11:58:55.812Z,100955.31
2019-02-08T12:01:29.236Z,100963.13
2019-02-08T12:03:59.800Z,100956.27
2019-02-08T12:06:30.380Z,100951.39
2019-02-08T12:09:01.754Z,100952.59
2019-02-08T12:11:32.473Z,100953.33
2019-02-08T12:14:03.307Z,100942.95
2019-02-08T12:19:04.016Z,100950.92
2019-02-08T12:21:34.904Z,100948.33
2019-02-08T12:24:07.707Z,100949.89
2019-02-08T12:26:38.479Z,100949.48
2019-02-08T12:29:10.210Z,100951.83
2019-02-08T12:31:43.488Z,100943.79
2019-02-08T12:34:14.187Z,100943.85
2019-02-08T12:36:47.227Z,100958.05
2019-02-08T12:39:19.504Z,100950.08
2019-02-08T12:41:50.158Z,100961.06
2019-02-08T12:44:21.045Z,100959.47
2019-02-08T12:46:51.541Z,100957.20
2019-02-08T12:49:21.743Z,100964.91
2019-02-08T12:51:55.050Z,100962.44
2019-02-08T12:54:26.739Z,100966.20
2019-02-08T12:56:57.731Z,100979.81
2019-02-08T12:59:28.662Z,100973.61
2019-02-08T13:01:59.070Z,100978.11
2019-02-08T13:04:29.858Z,100976.61
2019-02-08T13:07:00.494Z,100984.38
2019-02-08T13:09:31.314Z,100982.61
2019-02-08T13:12:01.798Z,100981.11
2019-02-08T13:14:32.616Z,100982.41
2019-02-08T13:17:02.910Z,100990.86
2019-02-08T13:19:33.522Z,100988.76
2019-02-08T13:22:04.024Z,100990.62
2019-02-08T13:24:34.674Z,100994.38
2019-02-08T13:27:05.484Z,100999.13
2019-02-08T13:29:35.997Z,101000.13
2019-02-08T13:32:08.832Z,100997.59
2019-02-08T13:34:39.706Z,100999.69
2019-02-08T13:37:11.765Z,101002.16
2019-02-08T13:39:43.777Z,101002.34
2019-02-08T13:42:15.541Z,101005.19
2019-02-08T13:44:47.387Z,101006.59
2019-02-08T13:47:18.567Z,101008.70
2019-02-08T13:49:49.624Z,101008.34
2019-02-08T13:52:20.948Z,101010.11
2019-02-08T13:54:51.862Z,101017.55
2019-02-08T13:57:22.662Z,101018.02
2019-02-08T13:59:53.170Z,101006.34
2019-02-08T14:02:23.774Z,101007.50
2019-02-08T14:04:54.286Z,101012.41
2019-02-08T14:07:24.699Z,101008.54
2019-02-08T14:09:55.531Z,101013.81
2019-02-08T14:12:26.034Z,101012.80
2019-02-08T14:14:56.781Z,101008.98
2019-02-08T14:17:28.621Z,101008.91
2019-02-08T14:19:58.972Z,101008.05
2019-02-08T14:22:29.782Z,100998.84
2019-02-08T14:25:00.315Z,101004.55
2019-02-08T14:27:30.908Z,101012.68
2019-02-08T14:30:01.464Z,101006.05
2019-02-08T14:32:31.950Z,101007.98
2019-02-08T14:35:02.383Z,101010.73
2019-02-08T14:37:34.077Z,101011.37
2019-02-08T14:40:05.179Z,101009.66
2019-02-08T14:42:35.891Z,101018.16
2019-02-08T14:45:08.196Z,101012.89
2019-02-08T14:47:39.083Z,101013.95
2019-02-08T14:50:11.108Z,101011.14
2019-02-08T14:52:41.639Z,101018.19
2019-02-08T14:55:12.627Z,101018.34
2019-02-08T14:57:43.104Z,101026.05
2019-02-08T15:00:14.858Z,101028.74
2019-02-08T15:02:46.035Z,101036.16
2019-02-08T15:05:17.451Z,101036.91
2019-02-08T15:07:51.462Z,101047.25
2019-02-08T15:10:28.840Z,101040.89
2019-02-08T15:13:01.844Z,101052.14
2019-02-08T15:15:32.490Z,101042.05
2019-02-08T15:18:03.660Z,101046.08
2019-02-08T15:20:35.664Z,101053.77
2019-02-08T15:23:06.935Z,101053.30
2019-02-08T15:25:37.717Z,101053.77
2019-02-08T15:28:08.958Z,101058.16
2019-02-08T15:30:41.047Z,101060.46
2019-02-08T15:33:11.865Z,101060.64
2019-02-08T15:35:44.149Z,101060.89
2019-02-08T15:38:16.077Z,101059.94
2019-02-08T15:40:50.566Z,101071.18
2019-02-08T15:43:22.789Z,101071.60
2019-02-08T15:45:57.718Z,101073.28
2019-02-08T15:48:28.754Z,101074.62
2019-02-08T15:50:59.343Z,101071.02
2019-02-08T15:53:29.903Z,101073.59
2019-02-08T15:56:10.809Z,101078.03
2019-02-08T15:58:44.279Z,101076.89
2019-02-08T16:01:15.568Z,101076.84
2019-02-08T16:03:46.233Z,101077.61
2019-02-08T16:06:17.230Z,101073.78
2019-02-08T16:08:48.392Z,101073.78
2019-02-08T16:11:18.979Z,101074.64
2019-02-08T16:13:50.030Z,101080.72
2019-02-08T16:16:20.990Z,101080.64
2019-02-08T16:18:51.751Z,101088.13
2019-02-08T16:21:22.434Z,101084.81
2019-02-08T16:23:53.080Z,101085.45
2019-02-08T16:26:24.207Z,101091.73
2019-02-08T16:28:56.197Z,101095.09
2019-02-08T16:31:26.556Z,101093.50
2019-02-08T16:33:58.034Z,101097.89
2019-02-08T16:36:30.266Z,101099.52
2019-02-08T16:39:01.949Z,101099.95
2019-02-08T16:41:33.480Z,101100.59
2019-02-08T16:44:04.003Z,101104.47
2019-02-08T16:46:34.856Z,101102.91
2019-02-08T16:49:05.573Z,101109.88
2019-02-08T16:51:36.674Z,101106.73
2019-02-08T16:54:08.789Z,101110.19
2019-02-08T16:56:38.552Z,101109.41
2019-02-08T16:59:09.515Z,101106.91
2019-02-08T17:01:40.541Z,101107.84
2019-02-08T17:04:14.701Z,101118.48
2019-02-08T17:06:45.775Z,101115.66
2019-02-08T17:09:17.946Z,101112.58
2019-02-08T17:11:49.110Z,101108.40
2019-02-08T17:14:20.113Z,101121.80
2019-02-08T17:16:51.053Z,101113.95
2019-02-08T17:19:21.805Z,101118.72
2019-02-08T17:21:54.247Z,101118.63
2019-02-08T17:24:25.142Z,101123.80
2019-02-08T17:26:56.187Z,101119.14
2019-02-08T17:29:28.534Z,101120.36
2019-02-08T17:31:59.861Z,101123.09
2019-02-08T17:34:30.478Z,101130.91
2019-02-08T17:37:01.563Z,101124.42
2019-02-08T17:39:33.368Z,101127.39
2019-02-08T17:42:04.022Z,101125.41
2019-02-08T17:44:34.868Z,101132.23
2019-02-08T17:47:06.003Z,101134.47
2019-02-08T17:49:36.623Z,101133.14
2019-02-08T17:52:07.718Z,101131.07
2019-02-08T17:54:38.212Z,101132.83
2019-02-08T17:57:08.953Z,101135.21
2019-02-08T17:59:40.718Z,101133.92
2019-02-08T18:02:11.507Z,101143.10
2019-02-08T18:04:42.752Z,101135.91
2019-02-08T18:07:13.762Z,101137.09
2019-02-08T18:09:44.600Z,101120.16
2019-02-08T18:12:15.502Z,101133.69
2019-02-08T18:14:46.214Z,101130.29
2019-02-08T18:17:17.680Z,101134.50
2019-02-08T18:19:48.330Z,101133.95
2019-02-08T18:22:19.310Z,101137.43
2019-02-08T18:24:50.001Z,101133.53
2019-02-08T18:27:23.371Z,101141.34
2019-02-08T18:29:53.865Z,101136.64
2019-02-08T18:32:24.543Z,101138.83
2019-02-08T18:34:55.595Z,101135.98
2019-02-08T18:37:26.214Z,101143.30
2019-02-08T18:39:57.549Z,101148.06
2019-02-08T18:42:28.709Z,101138.61
2019-02-08T18:44:59.275Z,101138.48
2019-02-08T18:47:29.813Z,101154.03
2019-02-08T18:50:00.274Z,101146.77
2019-02-08T18:52:30.838Z,101148.48
2019-02-08T18:55:01.311Z,101149.34
2019-02-08T18:57:31.876Z,101150.20
2019-02-08T19:00:02.132Z,101148.48
2019-02-08T19:02:32.867Z,101151.50
2019-02-08T19:05:03.380Z,101159.94
2019-02-08T19:07:33.814Z,101154.94
2019-02-08T19:10:04.718Z,101157.40
2019-02-08T19:12:35.450Z,101154.62
2019-02-08T19:15:07.809Z,101158.48
2019-02-08T19:17:38.188Z,101158.20
2019-02-08T19:20:10.670Z,101158.87
2019-02-08T19:22:41.606Z,101159.73
2019-02-08T19:25:18.827Z,101155.33
2019-02-08T19:27:49.878Z,101156.69
2019-02-08T19:30:22.962Z,101156.26
2019-02-08T19:32:54.120Z,101161.31
2019-02-08T19:35:24.916Z,101162.78
2019-02-08T19:37:56.212Z,101158.67
2019-02-08T19:40:31.147Z,101161.64
2019-02-08T19:43:01.524Z,101162.70
2019-02-08T19:45:32.814Z,101166.18
2019-02-08T19:48:04.599Z,101161.66
2019-02-08T19:50:37.629Z,101165.92
2019-02-08T19:53:10.619Z,101167.08
2019-02-08T19:55:41.997Z,101158.48
2019-02-08T19:58:13.142Z,101168.33
2019-02-08T20:00:44.397Z,101154.55
2019-02-08T20:03:15.155Z,101160.27
2019-02-08T20:05:46.471Z,101165.32
2019-02-08T20:08:17.177Z,101168.33
2019-02-08T20:10:49.138Z,101168.33
2019-02-08T20:13:19.917Z,101172.59
2019-02-08T20:15:50.950Z,101172.05
2019-02-08T20:18:21.791Z,101172.87
2019-02-08T20:20:53.893Z,101171.58
2019-02-08T20:23:24.295Z,101167.59
2019-02-08T20:25:54.763Z,101165.02
2019-02-08T20:28:26.557Z,101169.48
2019-02-08T20:30:57.134Z,101160.73
2019-02-08T20:33:27.658Z,101159.56
2019-02-08T20:35:58.334Z,101151.90
2019-02-08T20:38:29.346Z,101152.44
2019-02-08T20:41:01.002Z,101150.17
2019-02-08T20:43:31.490Z,101150.25
2019-02-08T20:46:01.963Z,101152.87
2019-02-08T20:48:32.680Z,101147.59
2019-02-08T20:51:03.239Z,101148.95
2019-02-08T20:53:33.901Z,101151.16
2019-02-08T20:56:04.958Z,101149.83
2019-02-08T20:58:35.668Z,101149.47
2019-02-08T21:01:06.960Z,101152.20
2019-02-08T21:03:37.619Z,101148.80
2019-02-08T21:06:08.691Z,101148.75
2019-02-08T21:08:39.583Z,101150.28
2019-02-08T21:11:10.277Z,101151.91
2019-02-08T21:13:40.747Z,101161.46
2019-02-08T21:16:11.429Z,101159.24
2019-02-08T21:18:41.950Z,101157.23
2019-02-08T21:21:12.715Z,101156.73
2019-02-08T21:23:43.390Z,101167.19
2019-02-08T21:26:14.090Z,101164.72
2019-02-08T21:28:45.211Z,101165.08
2019-02-08T21:31:15.607Z,101155.87
2019-02-08T21:33:46.170Z,101159.34
2019-02-08T21:36:17.506Z,101152.72
2019-02-08T21:38:48.220Z,101151.46
2019-02-08T21:41:19.894Z,101155.03
2019-02-08T21:43:50.713Z,101149.02
2019-02-08T21:46:21.343Z,101146.91
2019-02-08T21:48:51.987Z,101149.38
2019-02-08T21:51:23.476Z,101149.11
2019-02-08T21:53:53.845Z,101148.75
2019-02-08T21:56:24.448Z,101153.25
2019-02-08T21:58:55.219Z,101157.30
2019-02-08T22:01:25.589Z,101155.73
2019-02-08T22:03:56.130Z,101152.27
2019-02-08T22:06:26.720Z,101151.84
2019-02-08T22:08:57.473Z,101156.92
2019-02-08T22:11:27.728Z,101157.84
2019-02-08T22:13:58.014Z,101158.06
2019-02-08T22:16:28.504Z,101156.01
2019-02-08T22:18:58.939Z,101166.73
2019-02-08T22:21:30.604Z,101164.55
2019-02-08T22:24:01.112Z,101164.06
2019-02-08T22:29:01.973Z,101169.33
2019-02-08T22:31:32.544Z,101170.28
2019-02-08T22:34:02.819Z,101164.27
2019-02-08T22:36:33.801Z,101164.34
2019-02-08T22:39:06.524Z,101165.13
2019-02-08T22:41:39.336Z,101162.93
2019-02-08T22:44:10.255Z,101158.23
2019-02-08T22:46:41.015Z,101162.47
2019-02-08T22:49:15.876Z,101165.13
2019-02-08T22:51:50.036Z,101155.44
2019-02-08T22:54:23.381Z,101155.08
2019-02-08T22:56:53.999Z,101153.36
2019-02-08T22:59:24.463Z,101157.22
2019-02-08T23:01:56.074Z,101157.16
2019-02-08T23:04:26.581Z,101158.47
2019-02-08T23:06:57.205Z,101163.62
2019-02-08T23:09:27.825Z,101160.25
2019-02-08T23:12:01.873Z,101160.79
2019-02-08T23:14:33.110Z,101161.22
2019-02-08T23:17:04.045Z,101160.33
2019-02-08T23:19:34.876Z,101164.67
2019-02-08T23:22:05.742Z,101160.47
2019-02-08T23:24:35.510Z,101160.98
2019-02-08T23:27:06.189Z,101145.34
2019-02-08T23:29:36.955Z,101165.48
2019-02-08T23:32:08.145Z,101159.13
2019-02-08T23:34:39.192Z,101152.05
2019-02-08T23:37:10.155Z,101152.67
2019-02-08T23:39:41.210Z,101157.03
2019-02-08T23:42:13.424Z,101152.25
2019-02-08T23:44:44.348Z,101153.01
2019-02-08T23:47:14.819Z,101156.01
2019-02-08T23:49:45.583Z,101154.23
2019-02-08T23:52:16.251Z,101156.41
2019-02-08T23:54:46.870Z,101153.89
2019-02-08T23:57:17.576Z,101155.16
2019-02-08T23:59:48.008Z,101153.89
